Marshallberg, North Carolina
Current Conditions -  °F | °C
As of 7:58 AM on Tuesday 21 Oct 2014 (Local Time) from KMRH Reporting Station
Clear Clear  
Wind Chill: 60°   Ceiling: Unl
Heat Index: 60°   Visibility: 10mi
Dew Point: 59°   Wind: 3mph
Humidity: 96%   Direction: 280°W
Pressure: 29.94"   Gusts: NA
Location:  34.73°N, 76.52°W
Report Text: KMRH 211158Z AUTO 28003KT 10SM CLR 16/15 A2994 RMK AO2 SLP140 60001 70001 T01560150 10189 20144 51004 TSNO
Loading
Personal Weather Stations






























Interactive Weather Map
Tropical Storm Tracking
New forecast layout! Learn more

10-Day Weather Forecast

Advertisements
Track Severe Weather on mobile